createdAt,value
2018-09-05T00:01:20.847Z,17.93
2018-09-05T00:06:25.056Z,16.30
2018-09-05T00:11:29.573Z,16.00
2018-09-05T00:16:33.743Z,15.27
2018-09-05T00:21:37.947Z,15.47
2018-09-05T00:26:42.226Z,14.57
2018-09-05T00:31:46.468Z,15.43
2018-09-05T00:36:50.665Z,14.90
2018-09-05T00:41:54.813Z,15.40
2018-09-05T00:46:59.080Z,13.83
2018-09-05T00:52:03.275Z,15.53
2018-09-05T00:57:07.533Z,13.33
2018-09-05T01:02:11.773Z,13.97
2018-09-05T01:07:23.120Z,14.13
2018-09-05T01:12:27.370Z,13.23
2018-09-05T01:17:31.630Z,14.43
2018-09-05T01:22:35.876Z,14.83
2018-09-05T01:27:40.042Z,13.47
2018-09-05T01:32:44.257Z,13.53
2018-09-05T01:37:48.439Z,13.33
2018-09-05T01:42:52.613Z,13.13
2018-09-05T01:47:56.804Z,12.97
2018-09-05T01:53:01.072Z,11.90
2018-09-05T01:58:05.272Z,11.03
2018-09-05T02:03:09.594Z,11.23
2018-09-05T02:08:13.762Z,11.13
2018-09-05T02:13:18.251Z,13.20
2018-09-05T02:18:22.410Z,11.77
2018-09-05T02:33:09.135Z,12.40
2018-09-05T02:38:13.322Z,14.53
2018-09-05T02:43:22.799Z,15.23
2018-09-05T02:48:27.106Z,14.53
2018-09-05T02:53:31.282Z,14.20
2018-09-05T02:58:35.743Z,15.37
2018-09-05T03:03:39.905Z,12.97
2018-09-05T03:08:44.186Z,14.03
2018-09-05T03:13:48.363Z,14.57
2018-09-05T03:18:52.512Z,15.30
2018-09-05T03:23:56.724Z,14.40
2018-09-05T03:29:00.925Z,14.27
2018-09-05T03:34:05.111Z,11.37
2018-09-05T03:39:10.600Z,10.70
2018-09-05T03:44:14.787Z,10.50
2018-09-05T03:49:18.941Z,10.10
2018-09-05T03:54:23.115Z,12.30
2018-09-05T03:59:27.395Z,11.03
2018-09-05T04:04:31.643Z,12.33
2018-09-05T04:09:35.835Z,14.43
2018-09-05T04:14:40.042Z,15.03
2018-09-05T04:19:44.439Z,14.93
2018-09-05T04:24:48.586Z,13.80
2018-09-05T04:29:52.824Z,13.10
2018-09-05T04:34:56.988Z,12.63
2018-09-05T04:40:01.281Z,12.93
2018-09-05T04:45:05.610Z,13.90
2018-09-05T04:50:09.876Z,12.50
2018-09-05T04:55:14.121Z,12.80
2018-09-05T05:00:18.362Z,13.63
2018-09-05T05:05:22.612Z,13.60
2018-09-05T05:10:26.772Z,13.43
2018-09-05T05:15:31.158Z,13.60
2018-09-05T05:20:35.340Z,12.27
2018-09-05T05:25:39.517Z,13.77
2018-09-05T05:30:43.742Z,13.10
2018-09-05T05:35:47.923Z,14.27
2018-09-05T05:41:07.015Z,15.10
2018-09-05T05:46:11.237Z,13.20
2018-09-05T05:51:15.859Z,14.47
2018-09-05T05:56:20.045Z,13.53
2018-09-05T06:01:24.349Z,14.10
2018-09-05T06:06:28.595Z,14.97
2018-09-05T06:11:32.947Z,13.93
2018-09-05T06:16:37.186Z,13.60
2018-09-05T06:21:41.347Z,14.13
2018-09-05T06:26:45.916Z,13.40
2018-09-05T06:31:50.453Z,14.93
2018-09-05T06:36:54.815Z,14.73
2018-09-05T06:41:58.964Z,15.30
2018-09-05T06:47:03.234Z,15.93
2018-09-05T06:52:07.394Z,16.80
2018-09-05T06:57:11.956Z,15.17
2018-09-05T07:02:16.124Z,16.23
2018-09-05T07:07:20.508Z,15.67
2018-09-05T07:12:24.778Z,15.70
2018-09-05T07:17:29.168Z,16.70
2018-09-05T07:22:33.277Z,15.60
2018-09-05T07:27:37.871Z,15.57
2018-09-05T07:32:42.084Z,16.30
2018-09-05T07:37:46.546Z,16.47
2018-09-05T07:42:53.440Z,17.83
2018-09-05T07:53:45.730Z,17.80
2018-09-05T07:59:01.571Z,17.63
2018-09-05T08:04:10.336Z,17.33
2018-09-05T08:09:18.859Z,16.20
2018-09-05T08:14:36.440Z,18.07
2018-09-05T08:19:58.182Z,17.77
2018-09-05T08:30:34.650Z,18.43
2018-09-05T08:35:39.035Z,17.70
2018-09-05T08:40:43.090Z,17.23
2018-09-05T08:45:47.544Z,16.33
2018-09-05T08:50:51.524Z,17.87
2018-09-05T08:55:55.732Z,19.13
2018-09-05T09:00:59.891Z,18.53
2018-09-05T09:06:04.151Z,18.53
2018-09-05T09:11:08.354Z,16.47
2018-09-05T09:16:12.766Z,15.97
2018-09-05T09:21:17.079Z,19.17
2018-09-05T09:26:21.262Z,18.37
2018-09-05T09:31:25.435Z,17.40
2018-09-05T09:36:29.673Z,18.00
2018-09-05T09:41:33.901Z,19.30
2018-09-05T09:46:38.161Z,18.77
2018-09-05T09:51:42.289Z,19.93
2018-09-05T09:56:46.487Z,21.00
2018-09-05T10:01:55.979Z,20.30
2018-09-05T10:07:05.637Z,18.00
2018-09-05T10:12:15.349Z,17.17
2018-09-05T10:17:24.786Z,19.23
2018-09-05T10:22:29.826Z,18.73
2018-09-05T10:27:34.046Z,16.67
2018-09-05T10:32:38.202Z,14.07
2018-09-05T10:37:42.404Z,14.13
2018-09-05T10:42:46.744Z,15.33
2018-09-05T10:47:51.083Z,13.70
2018-09-05T10:52:55.392Z,16.47
2018-09-05T10:57:59.592Z,18.67
2018-09-05T11:03:03.742Z,14.00
2018-09-05T11:08:08.795Z,18.37
2018-09-05T11:13:14.737Z,17.70
2018-09-05T11:18:18.943Z,17.53
2018-09-05T11:23:23.160Z,16.83
2018-09-05T11:28:27.445Z,16.67
2018-09-05T11:33:31.582Z,17.93
2018-09-05T11:38:35.939Z,17.00
2018-09-05T11:43:40.148Z,14.90
2018-09-05T11:48:44.763Z,20.97
2018-09-05T11:53:48.903Z,20.23
2018-09-05T11:58:53.295Z,18.73
2018-09-05T12:03:57.477Z,18.87
2018-09-05T12:09:01.731Z,20.27
2018-09-05T12:14:05.890Z,20.50
2018-09-05T12:19:10.237Z,16.90
2018-09-05T12:24:14.477Z,18.33
2018-09-05T12:29:18.733Z,18.40
2018-09-05T12:34:22.909Z,18.00
2018-09-05T12:39:27.064Z,15.80
2018-09-05T12:44:31.231Z,15.27
2018-09-05T12:49:35.423Z,14.73
2018-09-05T12:54:39.646Z,14.43
2018-09-05T12:59:43.791Z,16.23
2018-09-05T13:04:47.950Z,15.13
2018-09-05T13:09:52.139Z,13.50
2018-09-05T13:14:56.302Z,13.50
2018-09-05T13:20:00.736Z,12.80
2018-09-05T13:25:04.938Z,13.10
2018-09-05T13:30:09.146Z,14.03
2018-09-05T13:35:13.380Z,14.30
2018-09-05T13:40:17.697Z,10.93
2018-09-05T13:45:21.867Z,10.50
2018-09-05T13:50:26.027Z,11.30
2018-09-05T13:55:30.260Z,10.20
2018-09-05T14:00:34.416Z,11.47
2018-09-05T14:05:38.555Z,11.17
2018-09-05T14:10:43.050Z,10.53
2018-09-05T14:15:47.238Z,9.57
2018-09-05T14:20:51.527Z,11.67
2018-09-05T14:25:55.615Z,11.50
2018-09-05T14:30:59.830Z,11.37
2018-09-05T14:36:04.063Z,14.70
2018-09-05T14:41:08.305Z,14.37
2018-09-05T14:46:12.474Z,11.53
2018-09-05T14:51:16.580Z,12.57
2018-09-05T14:56:20.773Z,11.67
2018-09-05T15:01:24.977Z,11.50
2018-09-05T15:06:29.406Z,12.27
2018-09-05T15:11:33.552Z,11.60
2018-09-05T15:16:38.043Z,11.23
2018-09-05T15:21:42.208Z,13.73
2018-09-05T15:26:46.356Z,12.03
2018-09-05T15:31:50.549Z,12.53
2018-09-05T15:36:54.706Z,12.80
2018-09-05T15:41:58.923Z,12.73
2018-09-05T15:47:03.190Z,13.13
2018-09-05T15:52:07.355Z,11.97
2018-09-05T15:57:11.741Z,12.03
2018-09-05T16:02:15.956Z,11.07
2018-09-05T16:07:20.225Z,10.40
2018-09-05T16:12:25.388Z,9.37
2018-09-05T16:17:29.573Z,9.20
2018-09-05T16:22:33.755Z,7.97
2018-09-05T16:27:37.948Z,8.13
2018-09-05T16:32:42.284Z,7.93
2018-09-05T16:37:46.454Z,7.70
2018-09-05T16:42:50.979Z,9.80
2018-09-05T16:47:55.146Z,8.17
2018-09-05T16:52:59.431Z,7.00
2018-09-05T16:58:03.607Z,7.57
2018-09-05T17:03:07.793Z,6.87
2018-09-05T17:08:12.097Z,7.20
2018-09-05T17:13:16.448Z,7.47
2018-09-05T17:18:20.804Z,7.70
2018-09-05T17:23:25.001Z,8.17
2018-09-05T17:28:29.297Z,7.97
2018-09-05T17:33:33.637Z,8.00
2018-09-05T17:38:37.863Z,8.30
2018-09-05T17:43:42.619Z,7.07
2018-09-05T17:48:46.919Z,8.90
2018-09-05T17:53:51.111Z,6.33
2018-09-05T17:58:55.366Z,5.03
2018-09-05T18:03:59.731Z,5.17
2018-09-05T18:09:05.147Z,5.17
2018-09-05T18:14:09.485Z,5.50
2018-09-05T18:19:13.833Z,5.67
2018-09-05T18:24:18.495Z,5.87
2018-09-05T18:29:22.701Z,5.20
2018-09-05T18:34:27.051Z,5.77
2018-09-05T18:39:31.229Z,5.73
2018-09-05T18:44:35.563Z,7.50
2018-09-05T18:49:39.766Z,6.40
2018-09-05T18:54:44.100Z,5.53
2018-09-05T18:59:48.298Z,4.63
2018-09-05T19:04:52.559Z,5.90
2018-09-05T19:09:56.757Z,6.50
2018-09-05T19:15:01.040Z,7.27
2018-09-05T19:20:05.276Z,7.93
2018-09-05T19:25:09.626Z,7.43
2018-09-05T19:30:14.907Z,7.73
2018-09-05T19:35:19.180Z,9.00
2018-09-05T19:40:24.113Z,9.20
2018-09-05T19:45:28.410Z,10.00
2018-09-05T19:50:33.608Z,11.27
2018-09-05T19:55:39.168Z,10.17
2018-09-05T20:00:43.673Z,11.00
2018-09-05T20:05:48.520Z,10.90
2018-09-05T20:10:52.945Z,10.90
2018-09-05T20:15:57.410Z,10.77
2018-09-05T20:21:01.801Z,12.43
2018-09-05T20:26:05.995Z,12.80
2018-09-05T20:31:10.262Z,13.03
2018-09-05T20:36:14.539Z,11.87
2018-09-05T20:41:18.755Z,13.33
2018-09-05T20:46:23.947Z,13.93
2018-09-05T20:51:28.167Z,13.80
2018-09-05T20:56:32.428Z,14.20
2018-09-05T21:01:36.639Z,15.10
2018-09-05T21:06:40.862Z,17.13
2018-09-05T21:11:45.063Z,16.10
2018-09-05T21:16:49.326Z,16.03
2018-09-05T21:21:53.554Z,16.30
2018-09-05T21:26:57.821Z,14.77
2018-09-05T21:32:01.993Z,15.70
2018-09-05T21:37:06.110Z,15.50
2018-09-05T21:42:10.280Z,13.93
2018-09-05T21:47:14.581Z,14.00
2018-09-05T21:52:18.905Z,14.87
2018-09-05T21:57:23.059Z,15.90
2018-09-05T22:02:27.281Z,15.27
2018-09-05T22:07:31.508Z,15.27
2018-09-05T22:12:35.861Z,15.20
2018-09-05T22:17:40.723Z,15.23
2018-09-05T22:22:44.886Z,16.70
2018-09-05T22:27:49.046Z,19.17
2018-09-05T22:32:53.384Z,17.47
2018-09-05T22:37:57.578Z,16.67
2018-09-05T22:43:12.868Z,16.50
2018-09-05T22:50:36.765Z,17.27
2018-09-05T22:56:55.999Z,16.93
2018-09-05T23:04:17.236Z,20.47
2018-09-05T23:10:29.913Z,18.40
2018-09-05T23:15:45.176Z,16.03
2018-09-05T23:21:03.691Z,15.20
2018-09-05T23:26:07.980Z,13.13
2018-09-05T23:31:12.219Z,13.10
2018-09-05T23:36:16.464Z,12.60
2018-09-05T23:41:20.747Z,12.57
2018-09-05T23:46:24.945Z,13.93
2018-09-05T23:51:29.117Z,13.23
2018-09-05T23:56:33.382Z,13.43
